x

Boston 16 Nm East Of Boston, Ma (44013) Wave Buoy

3:50 - Wed 28th Jun 2017 All times are EDT. -4 hours from GMT.

  • Sig Wave height 0.7ft
  • Average Period 4s
  • Wind
    7mph, 11mph gusts
  • Sea Temp 63°f
  • Aire Temp 67°f
  • Sea Pressure 1016.6mb
  • Boston 16 Nm East Of Boston, Ma
  • Boston 16 Nm East Of Boston, Ma

More Historic Weather Station data

Upgrade to MSW Pro to gain access to the past 30 days of data for over 8000 Wavebouys and Weather Stations around the globe.

Join Pro

Comparision Forecast

View Surf forecast
   
mié 06/28 3:50 0.7ft  -  4s 7 11 mph 1016.6mb 63f 67f
1:50 0.7ft  -  5s 7 7 mph 1016.5mb 62f 64f
12:50 0.7ft  -  4s 4 7 mph 1016.4mb 61f 63f
11:50 0.7ft  -  4s 7 9 mph 1016.4mb 60f 61f
10:50 0.7ft  -  4s 9 9 mph 1016.2mb 59f 60f
9:50 1ft 10s 4s 11 13 mph 1016.1mb 59f 59f
8:50 1ft 2s 3s 11 13 mph 1016.2mb 59f 58f
7:50 1ft 2s 3s 13 16 mph 1015.9mb 60f 58f
6:50 1ft 2s 3s 18 20 mph 1015.6mb 60f 58f
5:50 1ft 2s 3s 16 18 mph 1015.3mb 60f 58f
4:50 1ft 8s 4s 11 13 mph 1014.8mb 60f 58f
3:50 1ft 8s 3s 11 11 mph 1014.4mb 59f 58f
2:50 1.3ft 4s 4s 13 16 mph 1013.9mb 60f 59f
1:50 1.3ft 4s 4s 13 13 mph 1014mb 60f 59f
12:50 1.3ft 7s 4s 9 11 mph 1014.5mb 60f 59f
mar 06/27 11:50 1.3ft 6s 4s 7 9 mph 1014.8mb 60f 59f
10:50 1.3ft 3s 3s 2 2 mph 1014mb 60f 59f
9:50 1.3ft 3s 4s 9 11 mph 1015.3mb 60f 60f
8:50 1.3ft 3s 3s 7 7 mph 1012.9mb 60f 62f
7:50 1.6ft 3s 3s 7 11 mph 1013.4mb 60f 63f
6:50 1.3ft 3s 3s 16 18 mph 1012.4mb 61f 67f
5:50 1.6ft 3s 3s 13 16 mph 1012.3mb 61f 64f
4:50 1.3ft 3s 3s 11 13 mph 1012.6mb 61f 64f
3:50 1.3ft 2s 3s 16 18 mph 1012.9mb 61f 64f
2:50 1ft 5s 5s 13 16 mph 1013.5mb 61f 63f
1:50 1ft 6s 5s 9 11 mph 1014.5mb 62f 62f
12:50 1ft 6s 5s 7 7 mph 1015mb 61f 62f
11:50 1ft 6s 5s 4 4 mph 1015.9mb 60f 61f
10:50 1ft 6s 5s 9 9 mph 1016.3mb 60f 61f
9:50 1ft 7s 5s 9 9 mph 1016.2mb 60f 61f
8:50 0.7ft  -  5s 7 9 mph 1016.2mb 60f 60f
7:50 0.7ft  -  5s 7 7 mph 1016.2mb 60f 60f
6:50 0.7ft  -  5s 2 4 mph 1016mb 60f 61f
5:50 1ft 8s 5s 2 4 mph 1015.7mb 60f 61f
4:50 1ft 8s 4s 4 7 mph 1015.5mb 60f 60f
3:50 1ft 8s 5s 4 7 mph 1015.2mb 60f 60f
2:50 1ft 8s 5s 7 7 mph 1014.8mb 60f 60f
1:50 1ft 6s 5s 7 7 mph 1015mb 60f 61f
12:50 1.3ft 7s 5s 4 4 mph 1015.2mb 59f 62f
lun 06/26 11:50 1.3ft 6s 5s 7 9 mph 1015.4mb 59f 63f
10:50 1.3ft 8s 4s 7 9 mph 1015mb 59f 66f
9:50 1ft 8s 4s 9 16 mph 1014.8mb 60f 63f
8:50 1ft 8s 4s 13 13 mph 1014mb 61f 65f
7:50 1ft 9s 3s 9 9 mph 1014mb 61f 65f
6:50 1ft 8s 3s 11 11 mph 1013.7mb 60f 63f
5:50 1ft 2s 3s 13 16 mph 1013.5mb 62f 65f
4:50 0.7ft  -  4s 13 16 mph 1013.5mb 63f 65f
3:50 1ft 8s 5s 11 13 mph 1013.7mb 65f 65f
2:50 1ft 8s 5s 2 2 mph 1014mb 64f 70f
1:50 1.3ft 5s 5s 4 4 mph 1014.3mb 64f 69f
12:50 1.3ft 6s 5s 4 4 mph 1014.8mb 62f 68f
11:50 1.3ft 6s 5s 7 7 mph 1015mb 61f 63f
10:50 1.3ft 6s 6s 7 9 mph 1015.3mb 60f 62f
9:50 1ft 6s 5s 11 11 mph 1014.9mb 60f 61f
8:50 1ft 6s 5s 9 11 mph 1014.9mb 59f 61f
7:50 1ft 8s 5s 11 13 mph 1014.8mb 59f 60f
6:50 1ft 8s 5s 13 13 mph 1014.5mb 59f 60f
5:50 1ft 8s 6s 9 11 mph 1013.6mb 59f 59f
4:50 1ft 8s 6s 13 16 mph 1013mb 59f 60f
3:50 1ft 9s 5s 11 11 mph 1012.7mb 59f 60f
2:50 1ft 8s 5s 11 13 mph 1012.7mb 58f 61f
1:50 1.3ft 6s 5s 11 13 mph 1012.8mb 58f 60f
12:50 1.6ft 6s 4s 13 13 mph 1012.8mb 58f 62f
dom 06/25 11:50 1.6ft 7s 3s 9 11 mph 1013mb 58f 60f
10:50 1.3ft 6s 5s 20 27 mph 1013mb 58f 63f
9:50 1.3ft 8s 5s 13 16 mph 1012.3mb 59f 64f
8:50 1.6ft 8s 4s 7 9 mph 1012.1mb 59f 64f
7:50 1.3ft 8s 4s 9 11 mph 1012mb 60f 64f
6:50 1.3ft 8s 5s 18 20 mph 1011.9mb 61f 65f
5:50 1.3ft 9s 5s 11 16 mph 1011.4mb 60f 67f
4:50 1.3ft 8s 4s 9 11 mph 1011.3mb 62f 66f
3:50 1.3ft 8s 4s 16 18 mph 1011.4mb 63f 67f
2:50 1.3ft 8s 5s 11 11 mph 1012.1mb 63f 66f
1:50 1.6ft 8s 5s 4 9 mph 1012.5mb 63f 74f
12:50 1.3ft 6s 5s 2 2 mph 1013.1mb 61f 71f
11:50 1.3ft 6s 5s 7 7 mph 1013.5mb 59f 68f
10:50 1.6ft 7s 6s 7 9 mph 1013.7mb 58f 66f
9:50 1.6ft 7s 6s 9 9 mph 1013.9mb 57f 64f
8:50 1.3ft 7s 6s 4 4 mph 1013.9mb 57f 61f
7:50 1.3ft 8s 6s 9 9 mph 1013.7mb 56f 61f
6:50 1ft 7s 7s 9 9 mph 1013mb 56f 62f
5:50 1ft 8s 7s 9 9 mph 1012.2mb 56f 61f
4:50 1ft 8s 6s 9 11 mph 1011.6mb 56f 62f
3:50 1ft 8s 6s 11 13 mph 1010.9mb 57f 64f
2:50 1ft 8s 5s 9 11 mph 1010.9mb 57f 64f
1:50 1.3ft 5s 5s 9 11 mph 1010.7mb 57f 64f
12:50 1.3ft 6s 5s 9 11 mph 1010.3mb 57f 64f
sáb 06/24 11:50 1.6ft 6s 5s 11 11 mph 1010mb 56f 65f
10:50 2ft 6s 5s 9 11 mph 1009.3mb 57f 64f
9:50 1.6ft 6s 5s 13 16 mph 1008.5mb 57f 65f